Startpagina
METAR-TAF:

METAR-TAF

Vliegvelden :

Oezjhorod, Oekraïne

breedte: 48-38-05N, lengte: 022-15-53E, hoogte: 117 m

Actueel weer

Dit bericht is 16 minuten geleden gemaakt, om 09:00 UTC
Wind 10 kt uit het noordwesten, variërend tussen het westen en het noorden
Temperatuur 15°C
Vochtigheid 72%
Druk 1020 hPa
Zicht 10 km of meer
Geheel bewolkt op 3500 ft

METAR: UKLU 120900Z 31005MPS 280V360 9999 OVC035 15/10 Q1020 R10/290160 NOSIG

Tijdstip: 12:16 (09:16 UTC)

Verwachting

Dit bericht is 1 uur en het 13 minuten geleden gemaakt, om 08:03 UTC
Verwachting geldig van 12 om 09 UTC tot 12 om 18 UTC
Wind 10 kt uit het noordwesten
Zicht 10 km of meer
Verspreide wolken op 4000 ft
Tijdelijke
van 12 om 09 UTC tot 12 om 12 UTC
Wind 14 kt uit het noordnoordwesten met uitschieters tot 23 kt
Verspreide wolken op 1000 ft
Verspreide wolken op 2000 ft, Cumulonimbus.
lichte regenbuien

TAF: UKLU 120803Z 1209/1218 32005MPS 9999 SCT040 TEMPO 1209/1212 34007G12MPS -SHRA SCT010 SCT020CB

Waarnemingen en weersverwachtingen van meer dan 4000 vliegvelden (METAR en TAF).

De beschikbare stations zijn de gele en rode punten op de kaart.

Ga met uw muis naar het station om de naam te zien.

Klik dan om waarnemingen en weersverwachtingen te zien.

kaart wijzigen: klik op de groene knoppen met een zwart kruis om in te zoomen, op de groene knop met een streepje om uit te zoomen of op de groene pijlen voor aangrenzende kaarten.


METAR-TAF: